sensor_id;sensor_type;location;lat;lon;timestamp;temperature;humidity
4453;DHT22;2239;48.152;11.584;2023-08-06T00:02:14;15.60;99.90
4453;DHT22;2239;48.152;11.584;2023-08-06T00:04:39;15.60;99.90
4453;DHT22;2239;48.152;11.584;2023-08-06T00:07:05;15.70;99.90
4453;DHT22;2239;48.152;11.584;2023-08-06T00:09:30;15.60;99.90
4453;DHT22;2239;48.152;11.584;2023-08-06T00:11:56;15.70;99.90
4453;DHT22;2239;48.152;11.584;2023-08-06T00:14:21;15.70;99.90
4453;DHT22;2239;48.152;11.584;2023-08-06T00:16:47;15.70;99.90
4453;DHT22;2239;48.152;11.584;2023-08-06T00:19:13;15.70;99.90
4453;DHT22;2239;48.152;11.584;2023-08-06T00:21:38;15.70;99.90
4453;DHT22;2239;48.152;11.584;2023-08-06T00:24:04;15.70;99.90
4453;DHT22;2239;48.152;11.584;2023-08-06T00:26:30;15.70;99.90
4453;DHT22;2239;48.152;11.584;2023-08-06T00:28:55;15.70;99.90
4453;DHT22;2239;48.152;11.584;2023-08-06T00:31:21;15.70;99.90
4453;DHT22;2239;48.152;11.584;2023-08-06T00:33:46;15.70;99.90
4453;DHT22;2239;48.152;11.584;2023-08-06T00:36:12;15.60;99.90
4453;DHT22;2239;48.152;11.584;2023-08-06T00:38:37;15.60;99.90
4453;DHT22;2239;48.152;11.584;2023-08-06T00:41:03;15.60;99.90
4453;DHT22;2239;48.152;11.584;2023-08-06T00:43:28;15.50;99.90
4453;DHT22;2239;48.152;11.584;2023-08-06T00:45:54;15.50;99.90
4453;DHT22;2239;48.152;11.584;2023-08-06T00:48:20;15.40;99.90
4453;DHT22;2239;48.152;11.584;2023-08-06T00:50:46;15.40;99.90
4453;DHT22;2239;48.152;11.584;2023-08-06T00:53:12;15.40;99.90
4453;DHT22;2239;48.152;11.584;2023-08-06T00:55:38;15.30;99.90
4453;DHT22;2239;48.152;11.584;2023-08-06T00:58:04;15.30;99.90
4453;DHT22;2239;48.152;11.584;2023-08-06T01:00:30;15.30;99.90
4453;DHT22;2239;48.152;11.584;2023-08-06T01:02:56;15.30;99.90
4453;DHT22;2239;48.152;11.584;2023-08-06T01:05:22;15.30;99.90
4453;DHT22;2239;48.152;11.584;2023-08-06T01:13:37;15.20;99.90
4453;DHT22;2239;48.152;11.584;2023-08-06T01:16:06;15.20;99.90
4453;DHT22;2239;48.152;11.584;2023-08-06T01:18:32;15.20;99.90
4453;DHT22;2239;48.152;11.584;2023-08-06T01:20:58;15.10;99.90
4453;DHT22;2239;48.152;11.584;2023-08-06T01:23:24;15.10;99.90
4453;DHT22;2239;48.152;11.584;2023-08-06T01:26:14;15.00;99.90
4453;DHT22;2239;48.152;11.584;2023-08-06T01:31:15;15.00;99.90
4453;DHT22;2239;48.152;11.584;2023-08-06T01:33:45;14.90;99.90
4453;DHT22;2239;48.152;11.584;2023-08-06T01:36:16;14.90;99.90
4453;DHT22;2239;48.152;11.584;2023-08-06T01:38:42;14.90;99.90
4453;DHT22;2239;48.152;11.584;2023-08-06T01:41:07;14.90;99.90
4453;DHT22;2239;48.152;11.584;2023-08-06T01:43:33;14.90;99.90
4453;DHT22;2239;48.152;11.584;2023-08-06T01:45:58;14.90;99.90
4453;DHT22;2239;48.152;11.584;2023-08-06T01:48:24;14.90;99.90
4453;DHT22;2239;48.152;11.584;2023-08-06T01:50:50;14.90;99.90
4453;DHT22;2239;48.152;11.584;2023-08-06T01:53:15;14.80;99.90
4453;DHT22;2239;48.152;11.584;2023-08-06T01:55:41;14.80;99.90
4453;DHT22;2239;48.152;11.584;2023-08-06T01:58:06;14.80;99.90
4453;DHT22;2239;48.152;11.584;2023-08-06T02:00:32;14.80;99.90
4453;DHT22;2239;48.152;11.584;2023-08-06T02:02:57;14.70;99.90
4453;DHT22;2239;48.152;11.584;2023-08-06T02:05:23;14.70;99.90
4453;DHT22;2239;48.152;11.584;2023-08-06T02:07:49;14.70;99.90
4453;DHT22;2239;48.152;11.584;2023-08-06T02:10:14;14.70;99.90
4453;DHT22;2239;48.152;11.584;2023-08-06T02:12:41;14.70;99.90
4453;DHT22;2239;48.152;11.584;2023-08-06T02:15:06;14.60;99.90
4453;DHT22;2239;48.152;11.584;2023-08-06T02:17:32;14.60;99.90
4453;DHT22;2239;48.152;11.584;2023-08-06T02:19:57;14.60;99.90
4453;DHT22;2239;48.152;11.584;2023-08-06T02:22:23;14.60;99.90
4453;DHT22;2239;48.152;11.584;2023-08-06T02:24:49;14.50;99.90
4453;DHT22;2239;48.152;11.584;2023-08-06T02:27:15;14.60;99.90
4453;DHT22;2239;48.152;11.584;2023-08-06T02:29:40;14.50;99.90
4453;DHT22;2239;48.152;11.584;2023-08-06T02:32:07;14.50;99.90
4453;DHT22;2239;48.152;11.584;2023-08-06T02:34:33;14.50;99.90
4453;DHT22;2239;48.152;11.584;2023-08-06T02:36:58;14.50;99.90
4453;DHT22;2239;48.152;11.584;2023-08-06T02:39:23;14.50;99.90
4453;DHT22;2239;48.152;11.584;2023-08-06T02:41:49;14.50;99.90
4453;DHT22;2239;48.152;11.584;2023-08-06T02:44:15;14.40;99.90
4453;DHT22;2239;48.152;11.584;2023-08-06T02:46:40;14.40;99.90
4453;DHT22;2239;48.152;11.584;2023-08-06T02:49:06;14.40;99.90
4453;DHT22;2239;48.152;11.584;2023-08-06T02:51:32;14.40;99.90
4453;DHT22;2239;48.152;11.584;2023-08-06T02:53:57;14.40;99.90
4453;DHT22;2239;48.152;11.584;2023-08-06T02:56:23;14.40;99.90
4453;DHT22;2239;48.152;11.584;2023-08-06T02:58:48;14.40;99.90
4453;DHT22;2239;48.152;11.584;2023-08-06T03:01:14;14.40;99.90
4453;DHT22;2239;48.152;11.584;2023-08-06T03:03:39;14.40;99.90
4453;DHT22;2239;48.152;11.584;2023-08-06T03:06:05;14.40;99.90
4453;DHT22;2239;48.152;11.584;2023-08-06T03:08:31;14.40;99.90
4453;DHT22;2239;48.152;11.584;2023-08-06T03:10:56;14.40;99.90
4453;DHT22;2239;48.152;11.584;2023-08-06T03:13:22;14.40;99.90
4453;DHT22;2239;48.152;11.584;2023-08-06T03:15:55;14.40;99.90
4453;DHT22;2239;48.152;11.584;2023-08-06T03:18:21;14.40;99.90
4453;DHT22;2239;48.152;11.584;2023-08-06T03:20:47;14.40;99.90
4453;DHT22;2239;48.152;11.584;2023-08-06T03:23:12;14.40;99.90
4453;DHT22;2239;48.152;11.584;2023-08-06T03:25:38;14.30;99.90
4453;DHT22;2239;48.152;11.584;2023-08-06T03:28:03;14.30;99.90
4453;DHT22;2239;48.152;11.584;2023-08-06T03:30:29;14.30;99.90
4453;DHT22;2239;48.152;11.584;2023-08-06T03:32:54;14.30;99.90
4453;DHT22;2239;48.152;11.584;2023-08-06T03:35:20;14.20;99.90
4453;DHT22;2239;48.152;11.584;2023-08-06T03:37:46;14.20;99.90
4453;DHT22;2239;48.152;11.584;2023-08-06T03:40:11;14.20;99.90
4453;DHT22;2239;48.152;11.584;2023-08-06T03:42:37;14.20;99.90
4453;DHT22;2239;48.152;11.584;2023-08-06T03:45:03;14.20;99.90
4453;DHT22;2239;48.152;11.584;2023-08-06T03:47:28;14.20;99.90
4453;DHT22;2239;48.152;11.584;2023-08-06T03:49:54;14.20;99.90
4453;DHT22;2239;48.152;11.584;2023-08-06T03:52:19;14.20;99.90
4453;DHT22;2239;48.152;11.584;2023-08-06T03:54:45;14.20;99.90
4453;DHT22;2239;48.152;11.584;2023-08-06T03:57:10;14.20;99.90
4453;DHT22;2239;48.152;11.584;2023-08-06T03:59:36;14.20;99.90
4453;DHT22;2239;48.152;11.584;2023-08-06T04:02:01;14.20;99.90
4453;DHT22;2239;48.152;11.584;2023-08-06T04:04:27;14.20;99.90
4453;DHT22;2239;48.152;11.584;2023-08-06T04:06:53;14.10;99.90
4453;DHT22;2239;48.152;11.584;2023-08-06T04:09:18;14.10;99.90
4453;DHT22;2239;48.152;11.584;2023-08-06T04:11:44;14.10;99.90
4453;DHT22;2239;48.152;11.584;2023-08-06T04:14:09;14.10;99.90
4453;DHT22;2239;48.152;11.584;2023-08-06T04:16:35;14.10;99.90
4453;DHT22;2239;48.152;11.584;2023-08-06T04:19:01;14.10;99.90
4453;DHT22;2239;48.152;11.584;2023-08-06T04:21:26;14.10;99.90
4453;DHT22;2239;48.152;11.584;2023-08-06T04:23:52;14.10;99.90
4453;DHT22;2239;48.152;11.584;2023-08-06T04:26:17;14.10;99.90
4453;DHT22;2239;48.152;11.584;2023-08-06T04:28:43;14.20;99.90
4453;DHT22;2239;48.152;11.584;2023-08-06T04:31:08;14.20;99.90
4453;DHT22;2239;48.152;11.584;2023-08-06T04:33:34;14.20;99.90
4453;DHT22;2239;48.152;11.584;2023-08-06T04:35:59;14.20;99.90
4453;DHT22;2239;48.152;11.584;2023-08-06T04:38:25;14.20;99.90
4453;DHT22;2239;48.152;11.584;2023-08-06T04:40:51;14.20;99.90
4453;DHT22;2239;48.152;11.584;2023-08-06T04:43:17;14.30;99.90
4453;DHT22;2239;48.152;11.584;2023-08-06T04:45:49;14.30;99.90
4453;DHT22;2239;48.152;11.584;2023-08-06T04:48:15;14.40;99.90
4453;DHT22;2239;48.152;11.584;2023-08-06T04:50:48;14.40;99.90
4453;DHT22;2239;48.152;11.584;2023-08-06T04:53:14;14.50;99.90
4453;DHT22;2239;48.152;11.584;2023-08-06T04:55:40;14.60;99.90
4453;DHT22;2239;48.152;11.584;2023-08-06T04:58:06;14.60;99.90
4453;DHT22;2239;48.152;11.584;2023-08-06T05:00:32;14.60;99.90
4453;DHT22;2239;48.152;11.584;2023-08-06T05:02:59;14.60;99.90
4453;DHT22;2239;48.152;11.584;2023-08-06T05:05:25;14.60;99.90
4453;DHT22;2239;48.152;11.584;2023-08-06T05:07:51;14.70;99.90
4453;DHT22;2239;48.152;11.584;2023-08-06T05:10:16;14.70;99.90
4453;DHT22;2239;48.152;11.584;2023-08-06T05:12:42;14.70;99.90
4453;DHT22;2239;48.152;11.584;2023-08-06T05:15:08;14.70;99.90
4453;DHT22;2239;48.152;11.584;2023-08-06T05:17:33;14.70;99.90
4453;DHT22;2239;48.152;11.584;2023-08-06T05:19:59;14.70;99.90
4453;DHT22;2239;48.152;11.584;2023-08-06T05:22:25;14.70;99.90
4453;DHT22;2239;48.152;11.584;2023-08-06T05:24:50;14.70;99.90
4453;DHT22;2239;48.152;11.584;2023-08-06T05:27:16;14.60;99.90
4453;DHT22;2239;48.152;11.584;2023-08-06T05:29:44;14.60;99.90
4453;DHT22;2239;48.152;11.584;2023-08-06T05:32:10;14.60;99.90
4453;DHT22;2239;48.152;11.584;2023-08-06T05:34:35;14.70;99.90
4453;DHT22;2239;48.152;11.584;2023-08-06T05:37:01;14.70;99.90
4453;DHT22;2239;48.152;11.584;2023-08-06T05:39:27;14.70;99.90
4453;DHT22;2239;48.152;11.584;2023-08-06T05:41:52;14.70;99.90
4453;DHT22;2239;48.152;11.584;2023-08-06T05:44:18;14.70;99.90
4453;DHT22;2239;48.152;11.584;2023-08-06T05:46:43;14.70;99.90
4453;DHT22;2239;48.152;11.584;2023-08-06T05:49:09;14.70;99.90
4453;DHT22;2239;48.152;11.584;2023-08-06T05:51:34;14.80;99.90
4453;DHT22;2239;48.152;11.584;2023-08-06T05:54:00;14.80;99.90
4453;DHT22;2239;48.152;11.584;2023-08-06T05:56:25;14.80;99.90
4453;DHT22;2239;48.152;11.584;2023-08-06T05:58:51;14.80;99.90
4453;DHT22;2239;48.152;11.584;2023-08-06T06:01:18;14.90;99.90
4453;DHT22;2239;48.152;11.584;2023-08-06T06:03:44;14.90;99.90
4453;DHT22;2239;48.152;11.584;2023-08-06T06:06:09;14.90;99.90
4453;DHT22;2239;48.152;11.584;2023-08-06T06:08:35;15.00;99.90
4453;DHT22;2239;48.152;11.584;2023-08-06T06:11:00;15.10;99.90
4453;DHT22;2239;48.152;11.584;2023-08-06T06:13:26;15.10;99.90
4453;DHT22;2239;48.152;11.584;2023-08-06T06:15:54;15.20;99.90
4453;DHT22;2239;48.152;11.584;2023-08-06T06:18:20;15.20;99.90
4453;DHT22;2239;48.152;11.584;2023-08-06T06:20:46;15.30;99.90
4453;DHT22;2239;48.152;11.584;2023-08-06T06:23:11;15.30;99.90
4453;DHT22;2239;48.152;11.584;2023-08-06T06:25:41;15.40;99.90
4453;DHT22;2239;48.152;11.584;2023-08-06T06:28:06;15.50;99.90
4453;DHT22;2239;48.152;11.584;2023-08-06T06:30:32;15.60;99.90
4453;DHT22;2239;48.152;11.584;2023-08-06T06:32:57;15.60;99.90
4453;DHT22;2239;48.152;11.584;2023-08-06T06:35:23;15.70;99.90
4453;DHT22;2239;48.152;11.584;2023-08-06T06:37:49;15.80;99.90
4453;DHT22;2239;48.152;11.584;2023-08-06T06:40:14;15.80;99.90
4453;DHT22;2239;48.152;11.584;2023-08-06T06:42:40;15.90;99.90
4453;DHT22;2239;48.152;11.584;2023-08-06T06:45:06;16.00;99.90
4453;DHT22;2239;48.152;11.584;2023-08-06T06:47:32;16.00;99.90
4453;DHT22;2239;48.152;11.584;2023-08-06T06:49:57;16.10;99.90
4453;DHT22;2239;48.152;11.584;2023-08-06T06:52:23;16.10;99.90
4453;DHT22;2239;48.152;11.584;2023-08-06T06:54:48;16.20;99.90
4453;DHT22;2239;48.152;11.584;2023-08-06T06:57:14;16.30;99.90
4453;DHT22;2239;48.152;11.584;2023-08-06T06:59:40;16.40;99.90
4453;DHT22;2239;48.152;11.584;2023-08-06T07:02:05;16.60;99.90
4453;DHT22;2239;48.152;11.584;2023-08-06T07:04:31;16.70;99.90
4453;DHT22;2239;48.152;11.584;2023-08-06T07:06:56;16.80;99.90
4453;DHT22;2239;48.152;11.584;2023-08-06T07:09:22;16.70;99.90
4453;DHT22;2239;48.152;11.584;2023-08-06T07:11:47;16.90;99.90
4453;DHT22;2239;48.152;11.584;2023-08-06T07:14:13;17.10;99.90
4453;DHT22;2239;48.152;11.584;2023-08-06T07:16:40;17.40;99.90
4453;DHT22;2239;48.152;11.584;2023-08-06T07:19:05;17.50;99.90
4453;DHT22;2239;48.152;11.584;2023-08-06T07:21:31;17.40;99.90
4453;DHT22;2239;48.152;11.584;2023-08-06T07:23:57;17.30;99.90
4453;DHT22;2239;48.152;11.584;2023-08-06T07:26:24;17.30;99.90
4453;DHT22;2239;48.152;11.584;2023-08-06T07:28:50;17.20;99.90
4453;DHT22;2239;48.152;11.584;2023-08-06T07:31:15;17.00;99.90
4453;DHT22;2239;48.152;11.584;2023-08-06T07:33:41;16.80;99.90
4453;DHT22;2239;48.152;11.584;2023-08-06T07:36:14;16.70;99.90
4453;DHT22;2239;48.152;11.584;2023-08-06T07:38:40;16.40;99.90
4453;DHT22;2239;48.152;11.584;2023-08-06T07:41:06;16.20;99.90
4453;DHT22;2239;48.152;11.584;2023-08-06T07:43:32;16.10;99.90
4453;DHT22;2239;48.152;11.584;2023-08-06T07:45:58;16.00;99.90
4453;DHT22;2239;48.152;11.584;2023-08-06T07:48:25;16.00;99.90
4453;DHT22;2239;48.152;11.584;2023-08-06T07:50:52;15.90;99.90
4453;DHT22;2239;48.152;11.584;2023-08-06T07:53:20;16.00;99.90
4453;DHT22;2239;48.152;11.584;2023-08-06T07:55:53;16.00;99.90
4453;DHT22;2239;48.152;11.584;2023-08-06T07:58:20;16.00;99.90
4453;DHT22;2239;48.152;11.584;2023-08-06T08:00:46;15.90;99.90
4453;DHT22;2239;48.152;11.584;2023-08-06T08:03:12;16.00;99.90
4453;DHT22;2239;48.152;11.584;2023-08-06T08:05:42;16.10;99.90
4453;DHT22;2239;48.152;11.584;2023-08-06T08:08:07;16.30;99.90
4453;DHT22;2239;48.152;11.584;2023-08-06T08:10:34;16.80;99.90
4453;DHT22;2239;48.152;11.584;2023-08-06T08:13:03;17.40;99.90
4453;DHT22;2239;48.152;11.584;2023-08-06T08:15:30;18.00;99.90
4453;DHT22;2239;48.152;11.584;2023-08-06T08:17:55;18.40;99.90
4453;DHT22;2239;48.152;11.584;2023-08-06T08:20:21;18.60;99.90
4453;DHT22;2239;48.152;11.584;2023-08-06T08:22:47;18.80;99.90
4453;DHT22;2239;48.152;11.584;2023-08-06T08:25:13;18.80;99.90
4453;DHT22;2239;48.152;11.584;2023-08-06T08:27:39;18.70;99.90
4453;DHT22;2239;48.152;11.584;2023-08-06T08:30:05;18.90;99.90
4453;DHT22;2239;48.152;11.584;2023-08-06T08:32:31;18.90;99.90
4453;DHT22;2239;48.152;11.584;2023-08-06T08:34:56;19.10;99.90
4453;DHT22;2239;48.152;11.584;2023-08-06T08:37:23;19.40;99.90
4453;DHT22;2239;48.152;11.584;2023-08-06T08:39:49;19.10;99.90
4453;DHT22;2239;48.152;11.584;2023-08-06T08:42:15;19.00;99.90
4453;DHT22;2239;48.152;11.584;2023-08-06T08:44:42;18.80;99.90
4453;DHT22;2239;48.152;11.584;2023-08-06T08:47:08;18.50;99.90
4453;DHT22;2239;48.152;11.584;2023-08-06T08:49:35;18.30;99.90
4453;DHT22;2239;48.152;11.584;2023-08-06T08:52:02;18.10;99.90
4453;DHT22;2239;48.152;11.584;2023-08-06T08:54:28;18.00;99.90
4453;DHT22;2239;48.152;11.584;2023-08-06T08:56:56;17.90;99.90
4453;DHT22;2239;48.152;11.584;2023-08-06T08:59:22;17.70;99.90
4453;DHT22;2239;48.152;11.584;2023-08-06T09:01:48;17.80;99.90
4453;DHT22;2239;48.152;11.584;2023-08-06T09:04:17;17.90;99.90
4453;DHT22;2239;48.152;11.584;2023-08-06T09:06:49;17.90;99.90
4453;DHT22;2239;48.152;11.584;2023-08-06T09:09:22;17.80;99.90
4453;DHT22;2239;48.152;11.584;2023-08-06T09:11:51;17.80;99.90
4453;DHT22;2239;48.152;11.584;2023-08-06T09:14:17;17.70;99.90
4453;DHT22;2239;48.152;11.584;2023-08-06T09:16:43;17.70;99.90
4453;DHT22;2239;48.152;11.584;2023-08-06T09:19:13;17.60;99.90
4453;DHT22;2239;48.152;11.584;2023-08-06T09:21:41;17.60;99.90
4453;DHT22;2239;48.152;11.584;2023-08-06T09:24:08;17.50;99.90
4453;DHT22;2239;48.152;11.584;2023-08-06T09:26:34;17.20;99.90
4453;DHT22;2239;48.152;11.584;2023-08-06T09:29:00;17.10;99.90
4453;DHT22;2239;48.152;11.584;2023-08-06T09:31:33;17.00;99.90
4453;DHT22;2239;48.152;11.584;2023-08-06T09:34:00;17.00;99.90
4453;DHT22;2239;48.152;11.584;2023-08-06T09:36:27;17.00;99.90
4453;DHT22;2239;48.152;11.584;2023-08-06T09:38:52;17.10;99.90
4453;DHT22;2239;48.152;11.584;2023-08-06T09:41:27;17.10;99.90
4453;DHT22;2239;48.152;11.584;2023-08-06T09:43:54;17.20;99.90
4453;DHT22;2239;48.152;11.584;2023-08-06T09:46:19;17.10;99.90
4453;DHT22;2239;48.152;11.584;2023-08-06T09:48:46;17.20;99.90
4453;DHT22;2239;48.152;11.584;2023-08-06T09:51:13;17.30;99.90
4453;DHT22;2239;48.152;11.584;2023-08-06T09:53:40;17.30;99.90
4453;DHT22;2239;48.152;11.584;2023-08-06T09:56:06;17.30;99.90
4453;DHT22;2239;48.152;11.584;2023-08-06T09:58:32;17.30;99.90
4453;DHT22;2239;48.152;11.584;2023-08-06T10:00:59;17.30;99.90
4453;DHT22;2239;48.152;11.584;2023-08-06T10:03:25;17.20;99.90
4453;DHT22;2239;48.152;11.584;2023-08-06T10:05:51;17.20;99.90
4453;DHT22;2239;48.152;11.584;2023-08-06T10:08:16;17.10;99.90
4453;DHT22;2239;48.152;11.584;2023-08-06T10:10:43;17.10;99.90
4453;DHT22;2239;48.152;11.584;2023-08-06T10:13:09;17.10;99.90
4453;DHT22;2239;48.152;11.584;2023-08-06T10:15:36;17.20;99.90
4453;DHT22;2239;48.152;11.584;2023-08-06T10:18:04;17.20;99.90
4453;DHT22;2239;48.152;11.584;2023-08-06T10:20:36;17.30;99.90
4453;DHT22;2239;48.152;11.584;2023-08-06T10:23:03;17.40;99.90
4453;DHT22;2239;48.152;11.584;2023-08-06T10:25:33;17.40;99.90
4453;DHT22;2239;48.152;11.584;2023-08-06T10:27:59;17.60;99.90
4453;DHT22;2239;48.152;11.584;2023-08-06T10:32:55;18.00;99.90
4453;DHT22;2239;48.152;11.584;2023-08-06T10:38:11;18.20;99.90
4453;DHT22;2239;48.152;11.584;2023-08-06T10:40:39;18.20;99.90
4453;DHT22;2239;48.152;11.584;2023-08-06T10:43:05;17.80;99.90
4453;DHT22;2239;48.152;11.584;2023-08-06T10:45:36;17.50;99.90
4453;DHT22;2239;48.152;11.584;2023-08-06T10:48:02;17.40;99.90
4453;DHT22;2239;48.152;11.584;2023-08-06T10:50:28;17.40;99.90
4453;DHT22;2239;48.152;11.584;2023-08-06T10:52:55;17.60;99.90
4453;DHT22;2239;48.152;11.584;2023-08-06T10:55:25;17.70;99.90
4453;DHT22;2239;48.152;11.584;2023-08-06T10:57:51;17.70;99.90
4453;DHT22;2239;48.152;11.584;2023-08-06T11:00:17;17.80;99.90
4453;DHT22;2239;48.152;11.584;2023-08-06T11:02:43;17.90;99.90
4453;DHT22;2239;48.152;11.584;2023-08-06T11:05:10;18.10;99.90
4453;DHT22;2239;48.152;11.584;2023-08-06T11:07:36;18.30;99.90
4453;DHT22;2239;48.152;11.584;2023-08-06T11:10:07;18.40;99.90
4453;DHT22;2239;48.152;11.584;2023-08-06T11:12:33;18.30;99.90
4453;DHT22;2239;48.152;11.584;2023-08-06T11:15:00;18.30;99.90
4453;DHT22;2239;48.152;11.584;2023-08-06T11:17:28;18.40;99.90
4453;DHT22;2239;48.152;11.584;2023-08-06T11:19:54;18.30;99.90
4453;DHT22;2239;48.152;11.584;2023-08-06T11:22:21;18.20;99.90
4453;DHT22;2239;48.152;11.584;2023-08-06T11:24:47;18.00;99.90
4453;DHT22;2239;48.152;11.584;2023-08-06T11:27:13;17.80;99.90
4453;DHT22;2239;48.152;11.584;2023-08-06T11:29:43;17.80;99.90
4453;DHT22;2239;48.152;11.584;2023-08-06T11:32:10;17.80;99.90
4453;DHT22;2239;48.152;11.584;2023-08-06T11:34:36;17.80;99.90
4453;DHT22;2239;48.152;11.584;2023-08-06T11:37:06;17.90;99.90
4453;DHT22;2239;48.152;11.584;2023-08-06T11:39:36;17.90;99.90
4453;DHT22;2239;48.152;11.584;2023-08-06T11:42:06;18.00;99.90
4453;DHT22;2239;48.152;11.584;2023-08-06T11:44:34;18.10;99.90
4453;DHT22;2239;48.152;11.584;2023-08-06T11:47:02;18.20;99.90
4453;DHT22;2239;48.152;11.584;2023-08-06T11:49:44;18.40;99.90
4453;DHT22;2239;48.152;11.584;2023-08-06T11:52:24;18.20;99.90
4453;DHT22;2239;48.152;11.584;2023-08-06T11:55:02;18.00;99.90
4453;DHT22;2239;48.152;11.584;2023-08-06T11:57:31;17.90;99.90
4453;DHT22;2239;48.152;11.584;2023-08-06T12:00:02;17.80;99.90
4453;DHT22;2239;48.152;11.584;2023-08-06T12:02:33;17.80;99.90
4453;DHT22;2239;48.152;11.584;2023-08-06T12:05:13;18.00;99.90
4453;DHT22;2239;48.152;11.584;2023-08-06T12:07:43;18.10;99.90
4453;DHT22;2239;48.152;11.584;2023-08-06T12:10:09;18.10;99.90
4453;DHT22;2239;48.152;11.584;2023-08-06T12:12:35;18.20;99.90
4453;DHT22;2239;48.152;11.584;2023-08-06T12:15:03;18.20;99.90
4453;DHT22;2239;48.152;11.584;2023-08-06T12:17:28;18.00;99.90
4453;DHT22;2239;48.152;11.584;2023-08-06T12:19:54;18.00;99.90
4453;DHT22;2239;48.152;11.584;2023-08-06T12:22:20;18.00;99.90
4453;DHT22;2239;48.152;11.584;2023-08-06T12:24:46;18.20;99.90
4453;DHT22;2239;48.152;11.584;2023-08-06T12:27:12;18.20;99.90
4453;DHT22;2239;48.152;11.584;2023-08-06T12:29:42;18.20;99.90
4453;DHT22;2239;48.152;11.584;2023-08-06T12:32:08;18.00;99.90
4453;DHT22;2239;48.152;11.584;2023-08-06T12:34:34;17.90;99.90
4453;DHT22;2239;48.152;11.584;2023-08-06T12:36:59;17.90;99.90
4453;DHT22;2239;48.152;11.584;2023-08-06T12:39:25;17.70;99.90
4453;DHT22;2239;48.152;11.584;2023-08-06T12:41:54;17.60;99.90
4453;DHT22;2239;48.152;11.584;2023-08-06T12:44:20;17.60;99.90
4453;DHT22;2239;48.152;11.584;2023-08-06T12:46:45;17.50;99.90
4453;DHT22;2239;48.152;11.584;2023-08-06T12:49:11;17.30;99.90
4453;DHT22;2239;48.152;11.584;2023-08-06T12:51:36;17.20;99.90
4453;DHT22;2239;48.152;11.584;2023-08-06T12:54:02;17.10;99.90
4453;DHT22;2239;48.152;11.584;2023-08-06T12:56:27;16.80;99.90
4453;DHT22;2239;48.152;11.584;2023-08-06T12:58:54;16.80;99.90
4453;DHT22;2239;48.152;11.584;2023-08-06T13:01:19;16.80;99.90
4453;DHT22;2239;48.152;11.584;2023-08-06T13:03:45;17.00;99.90
4453;DHT22;2239;48.152;11.584;2023-08-06T13:06:11;17.20;99.90
4453;DHT22;2239;48.152;11.584;2023-08-06T13:08:37;17.10;99.90
4453;DHT22;2239;48.152;11.584;2023-08-06T13:11:03;17.30;99.90
4453;DHT22;2239;48.152;11.584;2023-08-06T13:13:28;17.40;99.90
4453;DHT22;2239;48.152;11.584;2023-08-06T13:15:54;17.60;99.90
4453;DHT22;2239;48.152;11.584;2023-08-06T13:18:20;18.00;99.90
4453;DHT22;2239;48.152;11.584;2023-08-06T13:20:45;18.30;99.90
4453;DHT22;2239;48.152;11.584;2023-08-06T13:23:12;18.70;99.90
4453;DHT22;2239;48.152;11.584;2023-08-06T13:25:40;18.60;99.90
4453;DHT22;2239;48.152;11.584;2023-08-06T13:28:06;18.20;99.90
4453;DHT22;2239;48.152;11.584;2023-08-06T13:30:32;17.70;99.90
4453;DHT22;2239;48.152;11.584;2023-08-06T13:32:57;17.30;99.90
4453;DHT22;2239;48.152;11.584;2023-08-06T13:35:23;17.00;99.90
4453;DHT22;2239;48.152;11.584;2023-08-06T13:37:49;16.80;99.90
4453;DHT22;2239;48.152;11.584;2023-08-06T13:40:15;16.80;99.90
4453;DHT22;2239;48.152;11.584;2023-08-06T13:42:41;17.00;99.90
4453;DHT22;2239;48.152;11.584;2023-08-06T13:45:06;17.30;99.90
4453;DHT22;2239;48.152;11.584;2023-08-06T13:47:32;17.50;99.90
4453;DHT22;2239;48.152;11.584;2023-08-06T13:49:58;17.30;99.90
4453;DHT22;2239;48.152;11.584;2023-08-06T13:52:25;17.20;99.90
4453;DHT22;2239;48.152;11.584;2023-08-06T13:54:51;17.00;99.90
4453;DHT22;2239;48.152;11.584;2023-08-06T13:57:16;16.80;99.90
4453;DHT22;2239;48.152;11.584;2023-08-06T13:59:42;16.70;99.90
4453;DHT22;2239;48.152;11.584;2023-08-06T14:02:09;16.60;99.90
4453;DHT22;2239;48.152;11.584;2023-08-06T14:04:34;16.40;99.90
4453;DHT22;2239;48.152;11.584;2023-08-06T14:07:00;16.30;99.90
4453;DHT22;2239;48.152;11.584;2023-08-06T14:09:26;16.20;99.90
4453;DHT22;2239;48.152;11.584;2023-08-06T14:11:51;16.10;99.90
4453;DHT22;2239;48.152;11.584;2023-08-06T14:14:17;16.00;99.90
4453;DHT22;2239;48.152;11.584;2023-08-06T14:16:42;16.10;99.90
4453;DHT22;2239;48.152;11.584;2023-08-06T14:19:08;16.10;99.90
4453;DHT22;2239;48.152;11.584;2023-08-06T14:21:33;16.10;99.90
4453;DHT22;2239;48.152;11.584;2023-08-06T14:23:59;16.10;99.90
4453;DHT22;2239;48.152;11.584;2023-08-06T14:26:24;16.10;99.90
4453;DHT22;2239;48.152;11.584;2023-08-06T14:28:50;16.00;99.90
4453;DHT22;2239;48.152;11.584;2023-08-06T14:31:20;16.00;99.90
4453;DHT22;2239;48.152;11.584;2023-08-06T14:33:46;15.90;99.90
4453;DHT22;2239;48.152;11.584;2023-08-06T14:36:11;15.90;99.90
4453;DHT22;2239;48.152;11.584;2023-08-06T14:38:37;16.00;99.90
4453;DHT22;2239;48.152;11.584;2023-08-06T14:41:02;15.90;99.90
4453;DHT22;2239;48.152;11.584;2023-08-06T14:43:28;15.80;99.90
4453;DHT22;2239;48.152;11.584;2023-08-06T14:45:53;15.80;99.90
4453;DHT22;2239;48.152;11.584;2023-08-06T14:48:19;15.60;99.90
4453;DHT22;2239;48.152;11.584;2023-08-06T14:50:44;15.40;99.90
4453;DHT22;2239;48.152;11.584;2023-08-06T14:53:10;15.30;99.90
4453;DHT22;2239;48.152;11.584;2023-08-06T14:55:37;15.20;99.90
4453;DHT22;2239;48.152;11.584;2023-08-06T14:58:02;15.20;99.90
4453;DHT22;2239;48.152;11.584;2023-08-06T15:00:28;15.10;99.90
4453;DHT22;2239;48.152;11.584;2023-08-06T15:02:53;15.10;99.90
4453;DHT22;2239;48.152;11.584;2023-08-06T15:05:19;15.20;99.90
4453;DHT22;2239;48.152;11.584;2023-08-06T15:07:45;15.10;99.90
4453;DHT22;2239;48.152;11.584;2023-08-06T15:10:10;15.10;99.90
4453;DHT22;2239;48.152;11.584;2023-08-06T15:12:36;15.20;99.90
4453;DHT22;2239;48.152;11.584;2023-08-06T15:15:02;15.20;99.90
4453;DHT22;2239;48.152;11.584;2023-08-06T15:17:27;15.20;99.90
4453;DHT22;2239;48.152;11.584;2023-08-06T15:19:56;15.20;99.90
4453;DHT22;2239;48.152;11.584;2023-08-06T15:22:23;15.30;99.90
4453;DHT22;2239;48.152;11.584;2023-08-06T15:24:49;15.30;99.90
4453;DHT22;2239;48.152;11.584;2023-08-06T15:27:14;15.30;99.90
4453;DHT22;2239;48.152;11.584;2023-08-06T15:29:40;15.20;99.90
4453;DHT22;2239;48.152;11.584;2023-08-06T15:32:07;15.10;99.90
4453;DHT22;2239;48.152;11.584;2023-08-06T15:34:34;15.10;99.90
4453;DHT22;2239;48.152;11.584;2023-08-06T15:37:00;15.10;99.90
4453;DHT22;2239;48.152;11.584;2023-08-06T15:39:26;15.00;99.90
4453;DHT22;2239;48.152;11.584;2023-08-06T15:41:51;15.00;99.90
4453;DHT22;2239;48.152;11.584;2023-08-06T15:44:17;15.00;99.90
4453;DHT22;2239;48.152;11.584;2023-08-06T15:46:42;15.00;99.90
4453;DHT22;2239;48.152;11.584;2023-08-06T15:49:08;15.00;99.90
4453;DHT22;2239;48.152;11.584;2023-08-06T15:51:34;14.90;99.90
4453;DHT22;2239;48.152;11.584;2023-08-06T15:53:59;14.90;99.90